sensor_id;sensor_type;location;lat;lon;timestamp;temperature;humidity
11656;DHT22;5884;43.618;1.438;2022-08-30T04:46:19;19.90;99.90
11656;DHT22;5884;43.618;1.438;2022-08-30T04:48:47;19.90;99.90
11656;DHT22;5884;43.618;1.438;2022-08-30T04:51:16;19.90;99.90
11656;DHT22;5884;43.618;1.438;2022-08-30T04:53:44;19.90;99.90
11656;DHT22;5884;43.618;1.438;2022-08-30T04:56:13;19.90;99.90
11656;DHT22;5884;43.618;1.438;2022-08-30T04:58:41;19.90;99.90
11656;DHT22;5884;43.618;1.438;2022-08-30T05:01:12;19.90;99.90
11656;DHT22;5884;43.618;1.438;2022-08-30T05:03:41;19.90;99.90
11656;DHT22;5884;43.618;1.438;2022-08-30T05:06:10;19.90;99.90
11656;DHT22;5884;43.618;1.438;2022-08-30T05:08:38;19.90;99.90
11656;DHT22;5884;43.618;1.438;2022-08-30T05:11:06;19.90;99.90
11656;DHT22;5884;43.618;1.438;2022-08-30T05:13:34;19.90;99.90
11656;DHT22;5884;43.618;1.438;2022-08-30T05:16:04;19.90;99.90
11656;DHT22;5884;43.618;1.438;2022-08-30T05:18:32;20.00;99.90
11656;DHT22;5884;43.618;1.438;2022-08-30T05:21:05;20.00;99.90
11656;DHT22;5884;43.618;1.438;2022-08-30T05:23:34;20.10;99.90
11656;DHT22;5884;43.618;1.438;2022-08-30T05:26:04;20.10;99.90
11656;DHT22;5884;43.618;1.438;2022-08-30T05:28:33;20.10;99.90
11656;DHT22;5884;43.618;1.438;2022-08-30T05:31:01;20.20;99.90
11656;DHT22;5884;43.618;1.438;2022-08-30T05:33:29;20.20;99.90
11656;DHT22;5884;43.618;1.438;2022-08-30T05:35:56;20.20;99.90
11656;DHT22;5884;43.618;1.438;2022-08-30T05:38:25;20.30;99.90
11656;DHT22;5884;43.618;1.438;2022-08-30T05:40:52;20.30;99.90
11656;DHT22;5884;43.618;1.438;2022-08-30T05:43:20;20.30;99.90
11656;DHT22;5884;43.618;1.438;2022-08-30T05:45:47;20.30;99.90
11656;DHT22;5884;43.618;1.438;2022-08-30T05:48:14;20.20;99.90
11656;DHT22;5884;43.618;1.438;2022-08-30T05:50:41;20.30;99.90
11656;DHT22;5884;43.618;1.438;2022-08-30T05:53:08;20.30;99.90
11656;DHT22;5884;43.618;1.438;2022-08-30T05:55:39;20.30;99.90
11656;DHT22;5884;43.618;1.438;2022-08-30T05:58:07;20.30;99.90
11656;DHT22;5884;43.618;1.438;2022-08-30T06:00:34;20.30;99.90
11656;DHT22;5884;43.618;1.438;2022-08-30T06:03:02;20.30;99.90
11656;DHT22;5884;43.618;1.438;2022-08-30T06:05:29;20.30;99.90
11656;DHT22;5884;43.618;1.438;2022-08-30T06:07:56;20.40;99.90
11656;DHT22;5884;43.618;1.438;2022-08-30T06:10:24;20.30;99.90
11656;DHT22;5884;43.618;1.438;2022-08-30T06:12:52;20.40;99.90
11656;DHT22;5884;43.618;1.438;2022-08-30T06:15:19;20.50;99.90
11656;DHT22;5884;43.618;1.438;2022-08-30T06:17:47;20.50;99.90
11656;DHT22;5884;43.618;1.438;2022-08-30T06:20:14;20.50;99.90
11656;DHT22;5884;43.618;1.438;2022-08-30T06:22:43;20.60;99.90
11656;DHT22;5884;43.618;1.438;2022-08-30T06:25:11;20.60;99.90
11656;DHT22;5884;43.618;1.438;2022-08-30T06:27:38;20.60;99.90
11656;DHT22;5884;43.618;1.438;2022-08-30T06:30:09;20.70;99.90
11656;DHT22;5884;43.618;1.438;2022-08-30T06:32:37;20.70;99.90
11656;DHT22;5884;43.618;1.438;2022-08-30T06:35:06;20.80;99.90
11656;DHT22;5884;43.618;1.438;2022-08-30T06:37:34;20.80;99.90
11656;DHT22;5884;43.618;1.438;2022-08-30T06:40:03;20.80;99.90
11656;DHT22;5884;43.618;1.438;2022-08-30T06:42:31;20.90;99.90
11656;DHT22;5884;43.618;1.438;2022-08-30T06:45:00;20.90;99.90
11656;DHT22;5884;43.618;1.438;2022-08-30T06:47:29;21.00;99.90
11656;DHT22;5884;43.618;1.438;2022-08-30T06:49:57;21.00;99.90
11656;DHT22;5884;43.618;1.438;2022-08-30T06:52:24;21.20;99.90
11656;DHT22;5884;43.618;1.438;2022-08-30T06:54:52;21.20;99.90
11656;DHT22;5884;43.618;1.438;2022-08-30T06:57:20;21.20;99.90
11656;DHT22;5884;43.618;1.438;2022-08-30T06:59:47;21.30;99.90
11656;DHT22;5884;43.618;1.438;2022-08-30T07:02:15;21.30;99.90
11656;DHT22;5884;43.618;1.438;2022-08-30T07:04:43;21.30;99.90
11656;DHT22;5884;43.618;1.438;2022-08-30T07:07:10;21.40;99.90
11656;DHT22;5884;43.618;1.438;2022-08-30T07:09:38;21.40;99.90
11656;DHT22;5884;43.618;1.438;2022-08-30T07:12:08;21.50;99.90
11656;DHT22;5884;43.618;1.438;2022-08-30T07:14:36;21.60;99.90
11656;DHT22;5884;43.618;1.438;2022-08-30T07:17:04;21.80;99.90
11656;DHT22;5884;43.618;1.438;2022-08-30T07:19:53;21.70;99.90
11656;DHT22;5884;43.618;1.438;2022-08-30T07:22:20;21.80;99.90
11656;DHT22;5884;43.618;1.438;2022-08-30T07:24:47;21.80;99.90
11656;DHT22;5884;43.618;1.438;2022-08-30T07:27:15;21.90;99.90
11656;DHT22;5884;43.618;1.438;2022-08-30T07:29:42;21.90;99.90
11656;DHT22;5884;43.618;1.438;2022-08-30T07:32:11;21.90;99.90
11656;DHT22;5884;43.618;1.438;2022-08-30T07:34:38;22.00;99.90
11656;DHT22;5884;43.618;1.438;2022-08-30T07:37:07;22.20;99.90
11656;DHT22;5884;43.618;1.438;2022-08-30T07:39:34;22.20;99.90
11656;DHT22;5884;43.618;1.438;2022-08-30T07:42:02;22.40;99.90
11656;DHT22;5884;43.618;1.438;2022-08-30T07:44:29;22.50;99.90
11656;DHT22;5884;43.618;1.438;2022-08-30T07:46:56;22.70;99.90
11656;DHT22;5884;43.618;1.438;2022-08-30T07:49:24;22.60;99.90
11656;DHT22;5884;43.618;1.438;2022-08-30T07:51:51;22.60;99.90
11656;DHT22;5884;43.618;1.438;2022-08-30T07:54:19;22.70;99.90
11656;DHT22;5884;43.618;1.438;2022-08-30T07:56:47;22.70;99.90
11656;DHT22;5884;43.618;1.438;2022-08-30T07:59:14;22.80;99.90
11656;DHT22;5884;43.618;1.438;2022-08-30T08:01:41;22.90;99.90
11656;DHT22;5884;43.618;1.438;2022-08-30T08:04:08;23.00;99.90
11656;DHT22;5884;43.618;1.438;2022-08-30T08:06:37;23.10;99.90
11656;DHT22;5884;43.618;1.438;2022-08-30T08:09:05;23.20;99.90
11656;DHT22;5884;43.618;1.438;2022-08-30T08:11:34;23.20;99.90
11656;DHT22;5884;43.618;1.438;2022-08-30T08:14:02;23.30;99.90
11656;DHT22;5884;43.618;1.438;2022-08-30T08:16:31;23.20;99.90
11656;DHT22;5884;43.618;1.438;2022-08-30T08:19:00;23.30;99.90
11656;DHT22;5884;43.618;1.438;2022-08-30T08:21:27;23.20;99.90
11656;DHT22;5884;43.618;1.438;2022-08-30T08:23:54;23.30;99.90
11656;DHT22;5884;43.618;1.438;2022-08-30T08:26:21;23.40;99.90
11656;DHT22;5884;43.618;1.438;2022-08-30T08:28:50;23.40;99.90
11656;DHT22;5884;43.618;1.438;2022-08-30T08:31:19;23.40;99.90
11656;DHT22;5884;43.618;1.438;2022-08-30T08:33:48;23.50;99.90
11656;DHT22;5884;43.618;1.438;2022-08-30T08:36:15;23.50;99.90
11656;DHT22;5884;43.618;1.438;2022-08-30T08:38:43;23.60;99.90
11656;DHT22;5884;43.618;1.438;2022-08-30T08:41:19;23.80;99.90
11656;DHT22;5884;43.618;1.438;2022-08-30T08:43:55;23.90;99.90
11656;DHT22;5884;43.618;1.438;2022-08-30T08:46:26;24.00;99.90
11656;DHT22;5884;43.618;1.438;2022-08-30T08:48:56;24.10;99.90
11656;DHT22;5884;43.618;1.438;2022-08-30T08:51:30;24.10;99.90
11656;DHT22;5884;43.618;1.438;2022-08-30T08:54:22;24.10;99.90
11656;DHT22;5884;43.618;1.438;2022-08-30T08:56:51;24.00;99.90
11656;DHT22;5884;43.618;1.438;2022-08-30T08:59:20;24.10;99.90
11656;DHT22;5884;43.618;1.438;2022-08-30T09:01:48;24.10;99.90
11656;DHT22;5884;43.618;1.438;2022-08-30T09:04:19;24.40;99.90
11656;DHT22;5884;43.618;1.438;2022-08-30T09:06:54;24.60;99.90
11656;DHT22;5884;43.618;1.438;2022-08-30T09:09:26;24.60;99.90
11656;DHT22;5884;43.618;1.438;2022-08-30T09:11:58;24.70;99.90
11656;DHT22;5884;43.618;1.438;2022-08-30T09:14:30;24.80;99.90
11656;DHT22;5884;43.618;1.438;2022-08-30T09:17:00;25.00;99.90
11656;DHT22;5884;43.618;1.438;2022-08-30T09:19:40;24.90;99.90
11656;DHT22;5884;43.618;1.438;2022-08-30T09:22:22;24.90;99.90
11656;DHT22;5884;43.618;1.438;2022-08-30T09:24:54;25.00;99.90
11656;DHT22;5884;43.618;1.438;2022-08-30T09:27:28;25.10;99.90
11656;DHT22;5884;43.618;1.438;2022-08-30T09:30:02;25.20;99.90
11656;DHT22;5884;43.618;1.438;2022-08-30T09:32:35;25.00;99.90
11656;DHT22;5884;43.618;1.438;2022-08-30T09:35:09;25.10;99.90
11656;DHT22;5884;43.618;1.438;2022-08-30T09:37:45;25.10;99.90
11656;DHT22;5884;43.618;1.438;2022-08-30T09:40:20;25.20;99.90
11656;DHT22;5884;43.618;1.438;2022-08-30T09:43:09;25.30;99.90
11656;DHT22;5884;43.618;1.438;2022-08-30T09:45:49;25.50;99.90
11656;DHT22;5884;43.618;1.438;2022-08-30T09:48:34;25.50;99.90
11656;DHT22;5884;43.618;1.438;2022-08-30T09:51:32;25.40;99.90
11656;DHT22;5884;43.618;1.438;2022-08-30T09:54:13;25.80;99.90
11656;DHT22;5884;43.618;1.438;2022-08-30T09:56:51;25.90;99.90
11656;DHT22;5884;43.618;1.438;2022-08-30T09:59:35;25.90;99.90
11656;DHT22;5884;43.618;1.438;2022-08-30T10:02:24;26.10;99.90
11656;DHT22;5884;43.618;1.438;2022-08-30T10:05:03;26.40;99.90
11656;DHT22;5884;43.618;1.438;2022-08-30T10:07:41;26.60;99.90
11656;DHT22;5884;43.618;1.438;2022-08-30T10:10:17;26.70;99.90
11656;DHT22;5884;43.618;1.438;2022-08-30T10:12:59;26.70;99.90
11656;DHT22;5884;43.618;1.438;2022-08-30T10:15:33;26.60;99.90
11656;DHT22;5884;43.618;1.438;2022-08-30T10:18:07;26.70;99.90
11656;DHT22;5884;43.618;1.438;2022-08-30T10:20:56;26.70;99.90
11656;DHT22;5884;43.618;1.438;2022-08-30T10:23:31;26.70;99.90
11656;DHT22;5884;43.618;1.438;2022-08-30T10:26:12;26.70;99.90
11656;DHT22;5884;43.618;1.438;2022-08-30T10:28:45;26.90;99.90
11656;DHT22;5884;43.618;1.438;2022-08-30T10:31:19;27.00;99.90
11656;DHT22;5884;43.618;1.438;2022-08-30T10:33:56;26.90;99.90
11656;DHT22;5884;43.618;1.438;2022-08-30T10:36:30;26.90;99.90
11656;DHT22;5884;43.618;1.438;2022-08-30T10:39:00;27.10;99.90
11656;DHT22;5884;43.618;1.438;2022-08-30T10:41:38;26.90;99.90
11656;DHT22;5884;43.618;1.438;2022-08-30T10:44:14;27.10;99.90
11656;DHT22;5884;43.618;1.438;2022-08-30T10:46:56;27.40;99.90
11656;DHT22;5884;43.618;1.438;2022-08-30T10:49:34;27.30;99.90
11656;DHT22;5884;43.618;1.438;2022-08-30T10:52:14;27.20;99.90
11656;DHT22;5884;43.618;1.438;2022-08-30T10:54:50;27.20;99.90
11656;DHT22;5884;43.618;1.438;2022-08-30T10:57:20;27.40;99.90
11656;DHT22;5884;43.618;1.438;2022-08-30T10:59:50;27.50;99.90
11656;DHT22;5884;43.618;1.438;2022-08-30T11:05:51;27.60;99.90
11656;DHT22;5884;43.618;1.438;2022-08-30T11:08:36;27.80;99.90
11656;DHT22;5884;43.618;1.438;2022-08-30T11:11:17;27.70;99.90
11656;DHT22;5884;43.618;1.438;2022-08-30T11:13:48;27.60;99.90
11656;DHT22;5884;43.618;1.438;2022-08-30T11:16:17;27.60;99.90
11656;DHT22;5884;43.618;1.438;2022-08-30T11:18:47;27.80;99.90
11656;DHT22;5884;43.618;1.438;2022-08-30T11:21:20;28.10;99.90
11656;DHT22;5884;43.618;1.438;2022-08-30T11:24:03;28.30;99.90
11656;DHT22;5884;43.618;1.438;2022-08-30T11:27:00;28.20;99.90
11656;DHT22;5884;43.618;1.438;2022-08-30T11:29:31;28.30;99.90
11656;DHT22;5884;43.618;1.438;2022-08-30T11:35:36;28.50;99.90
11656;DHT22;5884;43.618;1.438;2022-08-30T11:38:19;28.70;99.90
11656;DHT22;5884;43.618;1.438;2022-08-30T11:41:09;28.60;99.90
11656;DHT22;5884;43.618;1.438;2022-08-30T11:43:52;28.60;99.90
11656;DHT22;5884;43.618;1.438;2022-08-30T11:46:36;28.50;99.90
11656;DHT22;5884;43.618;1.438;2022-08-30T11:49:38;28.50;99.90
11656;DHT22;5884;43.618;1.438;2022-08-30T11:52:19;28.50;99.90
11656;DHT22;5884;43.618;1.438;2022-08-30T11:58:19;28.60;99.90
11656;DHT22;5884;43.618;1.438;2022-08-30T12:04:03;28.50;99.90
11656;DHT22;5884;43.618;1.438;2022-08-30T12:06:46;28.50;99.90
11656;DHT22;5884;43.618;1.438;2022-08-30T12:12:49;28.70;99.90
11656;DHT22;5884;43.618;1.438;2022-08-30T12:18:34;29.00;99.90
11656;DHT22;5884;43.618;1.438;2022-08-30T12:23:56;29.00;99.90
11656;DHT22;5884;43.618;1.438;2022-08-30T12:26:31;29.20;99.90
11656;DHT22;5884;43.618;1.438;2022-08-30T12:29:17;29.20;99.90
11656;DHT22;5884;43.618;1.438;2022-08-30T12:31:48;29.40;99.90
11656;DHT22;5884;43.618;1.438;2022-08-30T12:34:22;29.40;99.90
11656;DHT22;5884;43.618;1.438;2022-08-30T12:36:56;29.60;99.90
11656;DHT22;5884;43.618;1.438;2022-08-30T12:39:29;29.60;99.90
11656;DHT22;5884;43.618;1.438;2022-08-30T12:42:10;29.40;99.90
11656;DHT22;5884;43.618;1.438;2022-08-30T12:44:40;29.30;99.90
11656;DHT22;5884;43.618;1.438;2022-08-30T12:47:07;29.30;99.90
11656;DHT22;5884;43.618;1.438;2022-08-30T12:49:37;29.30;99.90
11656;DHT22;5884;43.618;1.438;2022-08-30T12:52:17;29.40;99.90
11656;DHT22;5884;43.618;1.438;2022-08-30T12:54:48;29.70;99.90
11656;DHT22;5884;43.618;1.438;2022-08-30T12:57:34;29.60;99.90
11656;DHT22;5884;43.618;1.438;2022-08-30T13:00:06;29.70;99.90
11656;DHT22;5884;43.618;1.438;2022-08-30T13:02:43;29.80;99.90
11656;DHT22;5884;43.618;1.438;2022-08-30T13:05:40;29.70;99.90
11656;DHT22;5884;43.618;1.438;2022-08-30T13:08:14;29.80;99.90
11656;DHT22;5884;43.618;1.438;2022-08-30T13:11:03;29.80;99.90
11656;DHT22;5884;43.618;1.438;2022-08-30T13:13:40;30.10;99.90
11656;DHT22;5884;43.618;1.438;2022-08-30T13:16:19;30.00;99.90
11656;DHT22;5884;43.618;1.438;2022-08-30T13:18:50;29.90;99.90
11656;DHT22;5884;43.618;1.438;2022-08-30T13:21:24;29.80;99.90
11656;DHT22;5884;43.618;1.438;2022-08-30T13:23:59;30.00;99.90
11656;DHT22;5884;43.618;1.438;2022-08-30T13:26:31;30.20;99.90
11656;DHT22;5884;43.618;1.438;2022-08-30T13:29:02;30.20;99.90
11656;DHT22;5884;43.618;1.438;2022-08-30T13:31:32;30.10;99.90
11656;DHT22;5884;43.618;1.438;2022-08-30T13:34:01;30.10;99.90
11656;DHT22;5884;43.618;1.438;2022-08-30T13:36:31;30.00;99.90
11656;DHT22;5884;43.618;1.438;2022-08-30T13:39:00;29.90;99.90
11656;DHT22;5884;43.618;1.438;2022-08-30T13:41:28;29.90;99.90
11656;DHT22;5884;43.618;1.438;2022-08-30T13:43:55;30.10;99.90
11656;DHT22;5884;43.618;1.438;2022-08-30T13:46:23;30.20;99.90
11656;DHT22;5884;43.618;1.438;2022-08-30T13:48:58;30.20;99.90
11656;DHT22;5884;43.618;1.438;2022-08-30T13:51:32;30.40;99.90
11656;DHT22;5884;43.618;1.438;2022-08-30T13:53:59;30.30;99.90
11656;DHT22;5884;43.618;1.438;2022-08-30T13:56:27;30.20;99.90
11656;DHT22;5884;43.618;1.438;2022-08-30T13:58:56;30.10;99.90
11656;DHT22;5884;43.618;1.438;2022-08-30T14:01:23;30.30;99.90
11656;DHT22;5884;43.618;1.438;2022-08-30T14:03:51;30.40;99.90
11656;DHT22;5884;43.618;1.438;2022-08-30T14:06:20;30.50;99.90
11656;DHT22;5884;43.618;1.438;2022-08-30T14:08:47;30.80;99.90
11656;DHT22;5884;43.618;1.438;2022-08-30T14:11:16;30.80;99.90
11656;DHT22;5884;43.618;1.438;2022-08-30T14:13:45;30.70;99.90
11656;DHT22;5884;43.618;1.438;2022-08-30T14:16:13;30.70;99.90
11656;DHT22;5884;43.618;1.438;2022-08-30T14:18:40;30.70;99.90
11656;DHT22;5884;43.618;1.438;2022-08-30T14:21:07;30.80;99.90
11656;DHT22;5884;43.618;1.438;2022-08-30T14:23:36;31.00;99.90
11656;DHT22;5884;43.618;1.438;2022-08-30T14:26:08;31.10;99.90
11656;DHT22;5884;43.618;1.438;2022-08-30T14:28:37;30.80;99.90
11656;DHT22;5884;43.618;1.438;2022-08-30T14:31:04;30.90;99.90
11656;DHT22;5884;43.618;1.438;2022-08-30T14:33:31;31.00;99.90
11656;DHT22;5884;43.618;1.438;2022-08-30T14:35:59;31.00;99.90
11656;DHT22;5884;43.618;1.438;2022-08-30T14:38:26;30.90;99.90
11656;DHT22;5884;43.618;1.438;2022-08-30T14:40:55;30.90;99.90
11656;DHT22;5884;43.618;1.438;2022-08-30T14:43:22;31.10;99.90
11656;DHT22;5884;43.618;1.438;2022-08-30T14:45:49;31.20;99.90
11656;DHT22;5884;43.618;1.438;2022-08-30T14:48:16;31.20;99.90
11656;DHT22;5884;43.618;1.438;2022-08-30T14:50:43;31.00;99.90
11656;DHT22;5884;43.618;1.438;2022-08-30T14:53:11;31.00;99.90
11656;DHT22;5884;43.618;1.438;2022-08-30T14:55:39;31.10;99.90
11656;DHT22;5884;43.618;1.438;2022-08-30T14:58:07;31.30;99.90
11656;DHT22;5884;43.618;1.438;2022-08-30T15:00:36;31.40;99.90
11656;DHT22;5884;43.618;1.438;2022-08-30T15:03:03;31.30;99.90
11656;DHT22;5884;43.618;1.438;2022-08-30T15:05:30;31.40;99.90
11656;DHT22;5884;43.618;1.438;2022-08-30T15:07:58;31.20;99.90
11656;DHT22;5884;43.618;1.438;2022-08-30T15:10:25;31.10;99.90
11656;DHT22;5884;43.618;1.438;2022-08-30T15:12:52;31.30;99.90
11656;DHT22;5884;43.618;1.438;2022-08-30T15:15:21;31.30;99.90
11656;DHT22;5884;43.618;1.438;2022-08-30T15:17:49;31.20;99.90
11656;DHT22;5884;43.618;1.438;2022-08-30T15:20:17;31.10;99.90
11656;DHT22;5884;43.618;1.438;2022-08-30T15:22:45;31.10;99.90
11656;DHT22;5884;43.618;1.438;2022-08-30T15:25:13;31.20;99.90
11656;DHT22;5884;43.618;1.438;2022-08-30T15:27:40;31.30;99.90
11656;DHT22;5884;43.618;1.438;2022-08-30T15:30:09;31.30;99.90
11656;DHT22;5884;43.618;1.438;2022-08-30T15:32:38;31.30;99.90
11656;DHT22;5884;43.618;1.438;2022-08-30T15:35:06;31.20;99.90
11656;DHT22;5884;43.618;1.438;2022-08-30T15:37:34;31.20;99.90
11656;DHT22;5884;43.618;1.438;2022-08-30T15:40:03;31.10;99.90
11656;DHT22;5884;43.618;1.438;2022-08-30T15:42:32;31.10;99.90
11656;DHT22;5884;43.618;1.438;2022-08-30T15:44:59;31.10;99.90
11656;DHT22;5884;43.618;1.438;2022-08-30T15:47:30;31.10;99.90
11656;DHT22;5884;43.618;1.438;2022-08-30T15:50:01;31.20;99.90
11656;DHT22;5884;43.618;1.438;2022-08-30T15:52:32;31.20;99.90
11656;DHT22;5884;43.618;1.438;2022-08-30T15:54:59;31.20;99.90
11656;DHT22;5884;43.618;1.438;2022-08-30T15:57:26;31.20;99.90
11656;DHT22;5884;43.618;1.438;2022-08-30T15:59:54;31.10;99.90
11656;DHT22;5884;43.618;1.438;2022-08-30T16:02:21;31.10;99.90
11656;DHT22;5884;43.618;1.438;2022-08-30T16:04:48;31.20;99.90
11656;DHT22;5884;43.618;1.438;2022-08-30T16:07:17;31.00;99.90
11656;DHT22;5884;43.618;1.438;2022-08-30T16:09:44;31.00;99.90
11656;DHT22;5884;43.618;1.438;2022-08-30T16:12:11;31.10;99.90
11656;DHT22;5884;43.618;1.438;2022-08-30T16:14:38;31.10;99.90
11656;DHT22;5884;43.618;1.438;2022-08-30T16:17:06;31.10;99.90
11656;DHT22;5884;43.618;1.438;2022-08-30T16:19:33;31.10;99.90
11656;DHT22;5884;43.618;1.438;2022-08-30T16:22:00;31.00;99.90
11656;DHT22;5884;43.618;1.438;2022-08-30T16:24:29;30.90;99.90
11656;DHT22;5884;43.618;1.438;2022-08-30T16:26:56;30.90;99.90
11656;DHT22;5884;43.618;1.438;2022-08-30T16:29:23;30.90;99.90
11656;DHT22;5884;43.618;1.438;2022-08-30T16:31:51;30.90;99.90
11656;DHT22;5884;43.618;1.438;2022-08-30T16:34:19;30.80;99.90
11656;DHT22;5884;43.618;1.438;2022-08-30T16:36:46;30.70;99.90
11656;DHT22;5884;43.618;1.438;2022-08-30T16:39:14;30.90;99.90
11656;DHT22;5884;43.618;1.438;2022-08-30T16:41:43;30.90;99.90
11656;DHT22;5884;43.618;1.438;2022-08-30T16:44:11;30.90;99.90
11656;DHT22;5884;43.618;1.438;2022-08-30T16:46:39;30.80;99.90
11656;DHT22;5884;43.618;1.438;2022-08-30T16:49:07;30.70;99.90
11656;DHT22;5884;43.618;1.438;2022-08-30T16:51:36;30.60;99.90
11656;DHT22;5884;43.618;1.438;2022-08-30T16:54:06;30.50;99.90
11656;DHT22;5884;43.618;1.438;2022-08-30T16:56:34;30.60;99.90
11656;DHT22;5884;43.618;1.438;2022-08-30T16:59:03;30.50;99.90
11656;DHT22;5884;43.618;1.438;2022-08-30T17:01:34;30.50;99.90
11656;DHT22;5884;43.618;1.438;2022-08-30T17:04:04;30.40;99.90
11656;DHT22;5884;43.618;1.438;2022-08-30T17:06:33;30.40;99.90
11656;DHT22;5884;43.618;1.438;2022-08-30T17:09:00;30.40;99.90
11656;DHT22;5884;43.618;1.438;2022-08-30T17:11:28;30.30;99.90
11656;DHT22;5884;43.618;1.438;2022-08-30T17:13:55;30.20;99.90
11656;DHT22;5884;43.618;1.438;2022-08-30T17:16:24;30.20;99.90
11656;DHT22;5884;43.618;1.438;2022-08-30T17:18:51;30.20;99.90
11656;DHT22;5884;43.618;1.438;2022-08-30T17:21:18;30.20;99.90
11656;DHT22;5884;43.618;1.438;2022-08-30T17:23:45;30.20;99.90
11656;DHT22;5884;43.618;1.438;2022-08-30T17:26:13;30.20;99.90
11656;DHT22;5884;43.618;1.438;2022-08-30T17:28:40;30.20;99.90
11656;DHT22;5884;43.618;1.438;2022-08-30T17:31:07;30.10;99.90
11656;DHT22;5884;43.618;1.438;2022-08-30T17:33:36;30.10;99.90
11656;DHT22;5884;43.618;1.438;2022-08-30T17:36:06;30.10;99.90
11656;DHT22;5884;43.618;1.438;2022-08-30T17:38:33;29.90;99.90
11656;DHT22;5884;43.618;1.438;2022-08-30T17:41:02;29.90;99.90
11656;DHT22;5884;43.618;1.438;2022-08-30T17:43:30;29.90;99.90
11656;DHT22;5884;43.618;1.438;2022-08-30T17:46:06;29.90;99.90
11656;DHT22;5884;43.618;1.438;2022-08-30T17:48:37;29.90;99.90
11656;DHT22;5884;43.618;1.438;2022-08-30T17:51:05;29.80;99.90
11656;DHT22;5884;43.618;1.438;2022-08-30T17:53:32;29.70;99.90
11656;DHT22;5884;43.618;1.438;2022-08-30T17:56:00;29.70;99.90
11656;DHT22;5884;43.618;1.438;2022-08-30T17:58:28;29.70;99.90
11656;DHT22;5884;43.618;1.438;2022-08-30T18:01:03;29.60;99.90
11656;DHT22;5884;43.618;1.438;2022-08-30T18:03:32;29.60;99.90
11656;DHT22;5884;43.618;1.438;2022-08-30T18:06:01;29.60;99.90
11656;DHT22;5884;43.618;1.438;2022-08-30T18:08:28;29.60;99.90
11656;DHT22;5884;43.618;1.438;2022-08-30T18:10:55;29.50;99.90
11656;DHT22;5884;43.618;1.438;2022-08-30T18:13:22;29.40;99.90
11656;DHT22;5884;43.618;1.438;2022-08-30T18:15:50;29.40;99.90
11656;DHT22;5884;43.618;1.438;2022-08-30T18:18:17;29.30;99.90
11656;DHT22;5884;43.618;1.438;2022-08-30T18:20:45;29.30;99.90
11656;DHT22;5884;43.618;1.438;2022-08-30T18:23:13;29.30;99.90
11656;DHT22;5884;43.618;1.438;2022-08-30T18:25:41;29.20;99.90
11656;DHT22;5884;43.618;1.438;2022-08-30T18:28:08;29.20;99.90
11656;DHT22;5884;43.618;1.438;2022-08-30T18:30:36;29.10;99.90
11656;DHT22;5884;43.618;1.438;2022-08-30T18:33:03;29.00;99.90
11656;DHT22;5884;43.618;1.438;2022-08-30T18:35:30;28.90;99.90
11656;DHT22;5884;43.618;1.438;2022-08-30T18:37:57;29.00;99.90
11656;DHT22;5884;43.618;1.438;2022-08-30T18:40:26;28.90;99.90
11656;DHT22;5884;43.618;1.438;2022-08-30T18:42:53;28.80;99.90
11656;DHT22;5884;43.618;1.438;2022-08-30T18:45:20;28.70;99.90
11656;DHT22;5884;43.618;1.438;2022-08-30T18:47:48;28.60;99.90
11656;DHT22;5884;43.618;1.438;2022-08-30T18:50:15;28.50;99.90
11656;DHT22;5884;43.618;1.438;2022-08-30T18:52:43;28.40;99.90
11656;DHT22;5884;43.618;1.438;2022-08-30T18:55:10;28.20;99.90
11656;DHT22;5884;43.618;1.438;2022-08-30T18:57:38;28.20;99.90
11656;DHT22;5884;43.618;1.438;2022-08-30T19:00:07;28.10;99.90
11656;DHT22;5884;43.618;1.438;2022-08-30T19:02:36;28.00;99.90
11656;DHT22;5884;43.618;1.438;2022-08-30T19:05:05;28.00;99.90
11656;DHT22;5884;43.618;1.438;2022-08-30T19:07:32;27.90;99.90
11656;DHT22;5884;43.618;1.438;2022-08-30T19:10:00;27.80;99.90
11656;DHT22;5884;43.618;1.438;2022-08-30T19:12:27;27.70;99.90
11656;DHT22;5884;43.618;1.438;2022-08-30T19:14:56;27.70;99.90
11656;DHT22;5884;43.618;1.438;2022-08-30T19:17:24;27.70;99.90
11656;DHT22;5884;43.618;1.438;2022-08-30T19:19:52;27.60;99.90
11656;DHT22;5884;43.618;1.438;2022-08-30T19:22:20;27.50;99.90
11656;DHT22;5884;43.618;1.438;2022-08-30T19:24:49;27.40;99.90
11656;DHT22;5884;43.618;1.438;2022-08-30T19:27:18;27.40;99.90
11656;DHT22;5884;43.618;1.438;2022-08-30T19:29:46;27.30;99.90
11656;DHT22;5884;43.618;1.438;2022-08-30T19:32:14;27.30;99.90
11656;DHT22;5884;43.618;1.438;2022-08-30T19:34:42;27.20;99.90
11656;DHT22;5884;43.618;1.438;2022-08-30T19:37:09;27.20;99.90
11656;DHT22;5884;43.618;1.438;2022-08-30T19:39:36;27.20;99.90
11656;DHT22;5884;43.618;1.438;2022-08-30T19:42:03;27.10;99.90
11656;DHT22;5884;43.618;1.438;2022-08-30T19:44:31;27.10;99.90
11656;DHT22;5884;43.618;1.438;2022-08-30T19:46:58;27.00;99.90
11656;DHT22;5884;43.618;1.438;2022-08-30T19:49:28;27.00;99.90
11656;DHT22;5884;43.618;1.438;2022-08-30T19:51:55;26.90;99.90
11656;DHT22;5884;43.618;1.438;2022-08-30T19:54:23;26.90;99.90
11656;DHT22;5884;43.618;1.438;2022-08-30T19:56:50;26.80;99.90
11656;DHT22;5884;43.618;1.438;2022-08-30T19:59:17;26.80;99.90
11656;DHT22;5884;43.618;1.438;2022-08-30T20:01:45;26.70;99.90
11656;DHT22;5884;43.618;1.438;2022-08-30T20:04:12;26.70;99.90
11656;DHT22;5884;43.618;1.438;2022-08-30T20:06:41;26.60;99.90
11656;DHT22;5884;43.618;1.438;2022-08-30T20:09:09;26.60;99.90
11656;DHT22;5884;43.618;1.438;2022-08-30T20:11:37;26.60;99.90
11656;DHT22;5884;43.618;1.438;2022-08-30T20:14:06;26.50;99.90
11656;DHT22;5884;43.618;1.438;2022-08-30T20:16:35;26.50;99.90
11656;DHT22;5884;43.618;1.438;2022-08-30T20:19:03;26.50;99.90
11656;DHT22;5884;43.618;1.438;2022-08-30T20:21:30;26.50;99.90
11656;DHT22;5884;43.618;1.438;2022-08-30T20:23:58;26.50;99.90
11656;DHT22;5884;43.618;1.438;2022-08-30T20:26:26;26.50;99.90
11656;DHT22;5884;43.618;1.438;2022-08-30T20:28:53;26.50;99.90
11656;DHT22;5884;43.618;1.438;2022-08-30T20:31:21;26.40;99.90
11656;DHT22;5884;43.618;1.438;2022-08-30T20:33:48;26.40;99.90
11656;DHT22;5884;43.618;1.438;2022-08-30T20:36:15;26.30;99.90
11656;DHT22;5884;43.618;1.438;2022-08-30T20:38:42;26.30;99.90
11656;DHT22;5884;43.618;1.438;2022-08-30T20:41:14;26.20;99.90
11656;DHT22;5884;43.618;1.438;2022-08-30T20:43:43;26.20;99.90
11656;DHT22;5884;43.618;1.438;2022-08-30T20:46:12;26.10;99.90
11656;DHT22;5884;43.618;1.438;2022-08-30T20:48:41;26.10;99.90
11656;DHT22;5884;43.618;1.438;2022-08-30T20:51:10;26.10;99.90
11656;DHT22;5884;43.618;1.438;2022-08-30T20:53:39;26.10;99.90
11656;DHT22;5884;43.618;1.438;2022-08-30T20:56:11;26.00;99.90
11656;DHT22;5884;43.618;1.438;2022-08-30T20:58:39;26.00;99.90
